createdAt,value
2022-09-23T00:00:32.428Z,13.80
2022-09-23T00:05:34.916Z,13.70
2022-09-23T00:10:38.829Z,13.60
2022-09-23T00:15:40.953Z,13.60
2022-09-23T00:20:43.103Z,13.60
2022-09-23T00:25:45.321Z,13.50
2022-09-23T00:30:47.494Z,13.60
2022-09-23T00:35:49.924Z,13.60
2022-09-23T00:40:52.162Z,13.60
2022-09-23T00:45:54.994Z,13.60
2022-09-23T00:50:57.562Z,13.60
2022-09-23T00:56:04.660Z,13.60
2022-09-23T01:01:07.111Z,13.60
2022-09-23T01:06:10.315Z,13.60
2022-09-23T01:11:36.182Z,13.60
2022-09-23T01:16:50.994Z,13.50
2022-09-23T01:21:57.149Z,13.60
2022-09-23T01:27:20.917Z,13.60
2022-09-23T01:33:08.885Z,13.60
2022-09-23T01:38:26.903Z,13.50
2022-09-23T01:43:49.946Z,13.60
2022-09-23T01:48:55.154Z,13.60
2022-09-23T01:54:02.915Z,13.60
2022-09-23T01:59:17.810Z,13.60
2022-09-23T02:05:00.303Z,13.60
2022-09-23T02:10:14.043Z,13.60
2022-09-23T02:15:23.551Z,13.60
2022-09-23T02:20:28.874Z,13.50
2022-09-23T02:25:56.662Z,13.50
2022-09-23T02:31:22.241Z,13.50
2022-09-23T02:36:33.026Z,13.50
2022-09-23T02:41:41.965Z,13.50
2022-09-23T02:46:45.052Z,13.30
2022-09-23T02:51:47.207Z,13.30
2022-09-23T02:56:49.661Z,13.30
2022-09-23T03:02:26.661Z,13.30
2022-09-23T03:07:56.404Z,13.30
2022-09-23T03:13:38.779Z,13.30
2022-09-23T03:18:47.909Z,13.30
2022-09-23T03:23:51.242Z,13.30
2022-09-23T03:28:54.310Z,13.30
2022-09-23T03:34:01.226Z,13.30
2022-09-23T03:39:08.522Z,13.30
2022-09-23T03:44:12.132Z,13.20
2022-09-23T03:49:24.352Z,13.30
2022-09-23T03:54:29.980Z,13.30
2022-09-23T03:59:32.261Z,13.30
2022-09-23T04:04:37.587Z,13.40
2022-09-23T04:09:39.804Z,13.40
2022-09-23T04:14:42.429Z,13.40
2022-09-23T04:19:45.206Z,13.50
2022-09-23T04:24:47.312Z,13.40
2022-09-23T04:29:49.436Z,13.40
2022-09-23T04:34:51.602Z,13.40
2022-09-23T04:39:54.358Z,13.40
2022-09-23T04:44:56.723Z,13.40
2022-09-23T04:50:00.030Z,13.40
2022-09-23T04:55:02.452Z,13.40
2022-09-23T05:00:05.090Z,13.40
2022-09-23T05:05:07.545Z,13.40
2022-09-23T05:10:09.837Z,13.40
2022-09-23T05:15:13.150Z,13.40
2022-09-23T05:20:15.316Z,13.50
2022-09-23T05:25:17.491Z,13.60
2022-09-23T05:30:19.666Z,13.60
2022-09-23T05:35:21.994Z,13.60
2022-09-23T05:40:24.564Z,13.60
2022-09-23T05:45:27.055Z,13.60
2022-09-23T05:50:29.212Z,13.60
2022-09-23T05:55:31.350Z,13.60
2022-09-23T06:00:33.489Z,13.60
2022-09-23T06:05:35.657Z,13.60
2022-09-23T06:10:43.851Z,13.60
2022-09-23T06:15:46.226Z,13.60
2022-09-23T06:20:48.359Z,13.70
2022-09-23T06:25:50.498Z,13.60
2022-09-23T06:30:58.170Z,13.60
2022-09-23T06:36:01.893Z,13.70
2022-09-23T06:41:04.127Z,13.70
2022-09-23T06:46:08.260Z,13.80
2022-09-23T06:51:13.824Z,13.80
2022-09-23T06:56:17.383Z,13.70
2022-09-23T07:01:19.978Z,13.80
2022-09-23T07:06:22.286Z,13.70
2022-09-23T07:11:24.508Z,13.80
2022-09-23T07:16:26.780Z,13.80
2022-09-23T07:21:28.986Z,13.90
2022-09-23T07:26:34.267Z,13.90
2022-09-23T07:31:39.680Z,13.90
2022-09-23T07:36:42.481Z,13.90
2022-09-23T07:41:44.870Z,13.90
2022-09-23T07:46:47.547Z,13.90
2022-09-23T07:51:49.687Z,14.00
2022-09-23T07:56:51.931Z,14.00
2022-09-23T08:01:55.708Z,14.00
2022-09-23T08:07:00.483Z,14.00
2022-09-23T08:12:02.737Z,14.00
2022-09-23T08:17:08.387Z,14.00
2022-09-23T08:22:12.241Z,13.90
2022-09-23T08:27:14.548Z,13.90
2022-09-23T08:32:16.774Z,13.90
2022-09-23T08:37:18.914Z,13.90
2022-09-23T08:42:30.064Z,14.10
2022-09-23T08:47:53.793Z,14.10
2022-09-23T08:53:04.934Z,14.20
2022-09-23T08:58:35.270Z,14.30
2022-09-23T09:03:49.352Z,14.30
2022-09-23T09:08:57.174Z,14.50
2022-09-23T09:14:22.311Z,14.50
2022-09-23T09:19:57.528Z,14.50
2022-09-23T09:25:14.131Z,14.50
2022-09-23T09:30:18.240Z,14.50
2022-09-23T09:35:42.471Z,14.60
2022-09-23T09:40:48.369Z,14.70
2022-09-23T09:46:18.468Z,14.80
2022-09-23T09:51:22.952Z,14.80
2022-09-23T09:56:44.673Z,14.90
2022-09-23T10:01:47.342Z,14.90
2022-09-23T10:07:14.216Z,14.80
2022-09-23T10:12:21.496Z,14.80
2022-09-23T10:17:25.784Z,14.80
2022-09-23T10:22:32.632Z,14.70
2022-09-23T10:27:36.827Z,14.80
2022-09-23T10:32:45.019Z,14.90
2022-09-23T10:37:50.089Z,15.00
2022-09-23T10:43:25.645Z,15.00
2022-09-23T10:48:45.859Z,15.10
2022-09-23T10:53:59.381Z,15.10
2022-09-23T10:59:33.127Z,15.10
2022-09-23T11:04:51.100Z,15.10
2022-09-23T11:10:44.842Z,15.20
2022-09-23T11:16:12.605Z,15.60
2022-09-23T11:21:24.024Z,15.90
2022-09-23T11:26:46.012Z,16.00
2022-09-23T11:32:27.838Z,16.10
2022-09-23T11:37:38.736Z,15.80
2022-09-23T11:42:59.801Z,15.90
2022-09-23T11:48:14.714Z,15.90
2022-09-23T11:53:49.706Z,16.10
2022-09-23T11:59:39.193Z,16.00
2022-09-23T12:04:55.795Z,15.90
2022-09-23T12:10:06.248Z,15.90
2022-09-23T12:15:11.327Z,15.90
2022-09-23T12:20:21.562Z,15.90
2022-09-23T12:25:23.804Z,15.90
2022-09-23T12:30:30.014Z,16.00
2022-09-23T12:35:41.972Z,16.40
2022-09-23T12:40:44.803Z,16.60
2022-09-23T12:45:48.626Z,17.00
2022-09-23T12:51:02.913Z,17.30
2022-09-23T12:56:20.234Z,17.10
2022-09-23T13:01:24.673Z,16.70
2022-09-23T13:06:39.037Z,16.90
2022-09-23T13:11:44.210Z,17.00
2022-09-23T13:16:47.441Z,16.80
2022-09-23T13:21:50.729Z,16.70
2022-09-23T13:27:02.142Z,16.80
2022-09-23T13:32:05.937Z,16.70
2022-09-23T13:37:25.799Z,16.60
2022-09-23T13:42:30.421Z,16.30
2022-09-23T13:47:36.073Z,16.40
2022-09-23T13:52:38.262Z,16.60
2022-09-23T13:57:40.877Z,16.70
2022-09-23T14:02:43.800Z,17.00
2022-09-23T14:07:46.118Z,17.10
2022-09-23T14:12:50.486Z,16.80
2022-09-23T14:18:06.311Z,16.90
2022-09-23T14:23:14.763Z,17.00
2022-09-23T14:28:19.067Z,16.80
2022-09-23T14:33:32.846Z,16.60
2022-09-23T14:38:50.639Z,16.60
2022-09-23T14:44:00.935Z,16.60
2022-09-23T14:49:12.064Z,16.70
2022-09-23T14:54:26.593Z,16.70
2022-09-23T14:59:37.126Z,16.90
2022-09-23T15:04:39.230Z,16.60
2022-09-23T15:09:42.659Z,16.40
2022-09-23T15:14:50.567Z,16.30
2022-09-23T15:19:56.915Z,16.10
2022-09-23T15:25:32.627Z,16.20
2022-09-23T15:30:36.711Z,16.20
2022-09-23T15:35:45.349Z,16.20
2022-09-23T15:40:48.132Z,16.30
2022-09-23T15:45:57.200Z,16.30
2022-09-23T15:51:04.884Z,16.30
2022-09-23T15:56:07.198Z,16.30
2022-09-23T16:01:20.355Z,16.30
2022-09-23T16:06:24.340Z,16.30
2022-09-23T16:11:34.046Z,16.30
2022-09-23T16:16:36.146Z,16.30
2022-09-23T16:21:43.260Z,16.30
2022-09-23T16:26:48.135Z,16.30
2022-09-23T16:31:50.279Z,16.20
2022-09-23T16:36:52.680Z,16.10
2022-09-23T16:41:54.777Z,16.30
2022-09-23T16:46:57.748Z,16.40
2022-09-23T16:52:01.614Z,16.30
2022-09-23T16:57:03.798Z,16.20
2022-09-23T17:02:28.329Z,16.10
2022-09-23T17:07:31.990Z,16.00
2022-09-23T17:12:35.198Z,16.00
2022-09-23T17:17:37.839Z,16.00
2022-09-23T17:22:41.049Z,15.90
2022-09-23T17:27:43.172Z,15.90
2022-09-23T17:32:45.267Z,15.80
2022-09-23T17:37:47.694Z,15.90
2022-09-23T17:42:50.384Z,15.90
2022-09-23T17:47:54.909Z,15.80
2022-09-23T17:53:00.344Z,15.80
2022-09-23T17:58:02.487Z,15.70
2022-09-23T18:03:04.702Z,15.70
2022-09-23T18:08:06.834Z,15.70
2022-09-23T18:13:09.186Z,15.60
2022-09-23T18:18:11.367Z,15.60
2022-09-23T18:23:13.501Z,15.60
2022-09-23T18:28:15.860Z,15.60
2022-09-23T18:33:18.161Z,15.50
2022-09-23T18:38:20.837Z,15.40
2022-09-23T18:43:25.849Z,15.30
2022-09-23T18:48:48.744Z,15.20
2022-09-23T18:53:50.859Z,15.10
2022-09-23T18:58:55.189Z,15.00
2022-09-23T19:03:58.600Z,14.90
2022-09-23T19:09:00.901Z,14.80
2022-09-23T19:14:06.119Z,14.70
2022-09-23T19:19:09.191Z,14.70
2022-09-23T19:24:15.663Z,14.70
2022-09-23T19:29:22.067Z,14.70
2022-09-23T19:34:26.029Z,14.70
2022-09-23T19:39:31.666Z,14.60
2022-09-23T19:44:37.783Z,14.60
2022-09-23T19:49:39.950Z,14.70
2022-09-23T19:54:42.184Z,14.70
2022-09-23T19:59:45.038Z,14.60
2022-09-23T20:04:47.166Z,14.50
2022-09-23T20:09:49.262Z,14.40
2022-09-23T20:14:53.959Z,14.30
2022-09-23T20:19:56.120Z,14.20
2022-09-23T20:24:59.332Z,14.20
2022-09-23T20:30:02.751Z,14.10
2022-09-23T20:35:05.882Z,14.00
2022-09-23T20:40:10.216Z,13.80
2022-09-23T20:45:12.898Z,13.70
2022-09-23T20:50:15.142Z,13.60
2022-09-23T20:55:18.175Z,13.50
2022-09-23T21:00:20.274Z,13.50
2022-09-23T21:05:23.324Z,13.60
2022-09-23T21:10:25.482Z,13.70
2022-09-23T21:15:28.039Z,13.80
2022-09-23T21:20:30.181Z,13.90
2022-09-23T21:25:35.838Z,14.10
2022-09-23T21:30:38.309Z,14.30
2022-09-23T21:35:40.816Z,14.50
2022-09-23T21:40:58.282Z,14.60
2022-09-23T21:46:02.652Z,14.60
2022-09-23T21:51:08.348Z,14.70
2022-09-23T21:56:18.170Z,14.70
2022-09-23T22:01:23.869Z,14.60
2022-09-23T22:06:28.232Z,14.60
2022-09-23T22:11:51.482Z,14.60
2022-09-23T22:16:57.627Z,14.60
2022-09-23T22:22:00.195Z,14.60
2022-09-23T22:27:02.353Z,14.60
2022-09-23T22:32:25.275Z,14.70
2022-09-23T22:37:36.066Z,14.80
2022-09-23T22:42:39.461Z,14.80
2022-09-23T22:47:45.373Z,14.90
2022-09-23T22:52:48.014Z,14.90
2022-09-23T22:57:51.623Z,14.90
2022-09-23T23:02:54.623Z,14.90
2022-09-23T23:07:57.597Z,14.90
2022-09-23T23:12:59.767Z,14.90
2022-09-23T23:18:01.956Z,14.90
2022-09-23T23:23:04.198Z,14.90
2022-09-23T23:28:06.427Z,14.90
2022-09-23T23:33:08.589Z,14.90
2022-09-23T23:38:13.117Z,14.90
2022-09-23T23:43:15.558Z,14.90
2022-09-23T23:48:21.188Z,14.90
2022-09-23T23:53:24.651Z,15.00
2022-09-23T23:58:27.948Z,15.00
